createdAt,value
2019-03-23T00:01:42.973Z,41.70
2019-03-23T00:04:28.472Z,40.57
2019-03-23T00:07:12.384Z,41.43
2019-03-23T00:09:58.663Z,42.33
2019-03-23T00:12:42.622Z,42.48
2019-03-23T00:15:26.976Z,42.13
2019-03-23T00:18:13.894Z,41.67
2019-03-23T00:20:58.960Z,42.70
2019-03-23T00:23:43.093Z,40.43
2019-03-23T00:26:27.721Z,41.90
2019-03-23T00:29:13.590Z,40.90
2019-03-23T00:31:59.327Z,39.43
2019-03-23T00:34:44.378Z,42.07
2019-03-23T00:37:29.095Z,40.57
2019-03-23T00:40:13.157Z,41.63
2019-03-23T00:42:58.107Z,43.97
2019-03-23T00:45:42.219Z,44.80
2019-03-23T00:48:26.545Z,40.47
2019-03-23T00:51:11.530Z,41.92
2019-03-23T00:53:55.837Z,41.03
2019-03-23T00:56:40.248Z,39.30
2019-03-23T00:59:24.258Z,36.42
2019-03-23T01:04:43.060Z,37.73
2019-03-23T01:07:27.940Z,38.30
2019-03-23T01:10:12.153Z,38.13
2019-03-23T01:12:57.880Z,40.37
2019-03-23T01:15:30.840Z,40.93
2019-03-23T01:18:14.675Z,40.33
2019-03-23T01:20:58.433Z,42.33
2019-03-23T01:23:42.328Z,45.33
2019-03-23T01:26:28.080Z,46.73
2019-03-23T01:29:12.911Z,47.30
2019-03-23T01:31:57.827Z,46.37
2019-03-23T01:34:44.050Z,48.27
2019-03-23T01:37:28.678Z,48.00
2019-03-23T01:40:12.850Z,48.33
2019-03-23T01:42:57.435Z,44.80
2019-03-23T01:45:42.047Z,45.10
2019-03-23T01:48:16.420Z,42.37
2019-03-23T01:51:01.162Z,41.90
2019-03-23T01:53:46.130Z,42.90
2019-03-23T01:56:30.922Z,44.15
2019-03-23T01:59:15.867Z,43.65
2019-03-23T02:02:02.522Z,46.70
2019-03-23T02:04:47.380Z,48.92
2019-03-23T02:07:20.441Z,52.38
2019-03-23T02:10:04.835Z,52.93
2019-03-23T02:12:49.562Z,52.30
2019-03-23T02:15:35.047Z,54.50
2019-03-23T02:18:18.934Z,55.97
2019-03-23T02:21:03.717Z,55.50
2019-03-23T02:23:47.797Z,57.20
2019-03-23T02:26:32.309Z,56.17
2019-03-23T02:29:16.072Z,55.97
2019-03-23T02:32:00.392Z,59.57
2019-03-23T02:34:45.175Z,58.68
2019-03-23T02:37:29.521Z,56.88
2019-03-23T02:40:13.994Z,56.93
2019-03-23T02:42:46.995Z,60.17
2019-03-23T02:45:32.906Z,59.93
2019-03-23T02:48:19.204Z,60.30
2019-03-23T02:51:03.086Z,61.63
2019-03-23T02:53:48.557Z,60.70
2019-03-23T02:56:32.341Z,63.23
2019-03-23T02:59:05.586Z,63.25
2019-03-23T03:01:49.890Z,66.70
2019-03-23T03:04:35.153Z,64.27
2019-03-23T03:07:08.849Z,67.45
2019-03-23T03:09:53.557Z,68.53
2019-03-23T03:12:37.716Z,64.83
2019-03-23T03:15:22.067Z,65.03
2019-03-23T03:18:07.387Z,69.63
2019-03-23T03:20:52.124Z,69.30
2019-03-23T03:23:36.527Z,65.13
2019-03-23T03:26:20.388Z,67.17
2019-03-23T03:29:04.529Z,67.60
2019-03-23T03:31:48.607Z,67.77
2019-03-23T03:34:33.111Z,67.20
2019-03-23T03:37:16.967Z,65.03
2019-03-23T03:40:01.307Z,68.28
2019-03-23T03:42:45.313Z,69.15
2019-03-23T03:45:29.482Z,68.23
2019-03-23T03:48:16.093Z,64.80
2019-03-23T03:50:59.993Z,68.40
2019-03-23T03:53:44.524Z,65.50
2019-03-23T03:56:30.397Z,66.30
2019-03-23T03:59:14.904Z,65.07
2019-03-23T04:02:00.646Z,63.00
2019-03-23T04:04:46.289Z,61.13
2019-03-23T04:07:30.865Z,60.60
2019-03-23T04:10:15.427Z,60.00
2019-03-23T04:12:59.547Z,58.23
2019-03-23T04:15:44.400Z,58.27
2019-03-23T04:18:29.817Z,58.87
2019-03-23T04:21:15.470Z,56.23
2019-03-23T04:23:59.780Z,57.03
2019-03-23T04:26:33.158Z,58.00
2019-03-23T04:32:19.916Z,57.33
2019-03-23T04:35:04.724Z,60.67
2019-03-23T04:37:49.019Z,57.43
2019-03-23T04:40:35.072Z,57.78
2019-03-23T04:43:21.604Z,56.45
2019-03-23T04:46:06.488Z,56.23
2019-03-23T04:48:53.519Z,57.83
2019-03-23T04:51:42.157Z,56.13
2019-03-23T04:54:26.755Z,55.23
2019-03-23T04:57:15.670Z,54.67
2019-03-23T04:59:59.883Z,58.17
2019-03-23T05:02:44.515Z,56.30
2019-03-23T05:05:28.708Z,55.73
2019-03-23T05:08:12.937Z,49.53
2019-03-23T05:10:56.948Z,55.83
2019-03-23T05:13:29.991Z,53.13
2019-03-23T05:16:03.086Z,56.17
2019-03-23T05:19:04.406Z,50.73
2019-03-23T05:21:50.442Z,54.42
2019-03-23T05:24:34.635Z,53.10
2019-03-23T05:27:07.715Z,57.57
2019-03-23T05:29:51.960Z,54.43
2019-03-23T05:32:25.298Z,53.80
2019-03-23T05:35:09.411Z,53.38
2019-03-23T05:37:53.801Z,54.03
2019-03-23T05:40:39.461Z,56.33
2019-03-23T05:43:24.216Z,55.93
2019-03-23T05:46:08.339Z,57.07
2019-03-23T05:48:53.420Z,54.77
2019-03-23T05:51:37.944Z,56.23
2019-03-23T05:54:22.076Z,55.90
2019-03-23T05:57:06.088Z,53.50
2019-03-23T05:59:50.366Z,55.57
2019-03-23T06:02:35.577Z,56.50
2019-03-23T06:05:20.482Z,57.80
2019-03-23T06:08:04.654Z,55.67
2019-03-23T06:10:50.380Z,56.23
2019-03-23T06:13:35.004Z,56.27
2019-03-23T06:16:08.410Z,53.23
2019-03-23T06:18:52.319Z,53.60
2019-03-23T06:21:25.615Z,53.63
2019-03-23T06:23:59.202Z,53.17
2019-03-23T06:26:45.041Z,51.03
2019-03-23T06:29:29.803Z,51.90
2019-03-23T06:32:14.467Z,52.17
2019-03-23T06:35:04.423Z,48.70
2019-03-23T06:37:49.068Z,49.47
2019-03-23T06:40:33.678Z,49.13
2019-03-23T06:43:20.113Z,48.83
2019-03-23T06:45:53.131Z,48.20
2019-03-23T06:48:37.304Z,47.13
2019-03-23T06:51:21.431Z,49.80
2019-03-23T06:54:05.928Z,49.73
2019-03-23T06:56:51.438Z,47.38
2019-03-23T06:59:35.303Z,49.87
2019-03-23T07:02:20.468Z,48.53
2019-03-23T07:05:06.559Z,48.57
2019-03-23T07:07:52.631Z,48.37
2019-03-23T07:10:37.179Z,49.30
2019-03-23T07:13:21.207Z,48.42
2019-03-23T07:16:05.907Z,48.80
2019-03-23T07:18:50.779Z,47.17
2019-03-23T07:24:41.923Z,45.95
2019-03-23T07:27:25.696Z,46.53
2019-03-23T07:30:00.417Z,47.80
2019-03-23T07:32:44.825Z,46.42
2019-03-23T07:35:29.765Z,49.27
2019-03-23T07:38:03.182Z,46.70
2019-03-23T07:40:47.552Z,48.33
2019-03-23T07:43:32.297Z,46.35
2019-03-23T07:46:18.048Z,47.80
2019-03-23T07:49:02.702Z,46.73
2019-03-23T07:51:49.055Z,45.80
2019-03-23T07:54:33.222Z,47.20
2019-03-23T07:57:19.330Z,49.10
2019-03-23T08:00:03.666Z,46.98
2019-03-23T08:02:48.442Z,46.77
2019-03-23T08:05:32.753Z,40.10
2019-03-23T08:08:36.820Z,44.60
2019-03-23T08:11:21.413Z,41.60
2019-03-23T08:14:05.677Z,47.20
2019-03-23T08:16:38.944Z,45.90
2019-03-23T08:19:23.507Z,48.63
2019-03-23T08:22:11.161Z,48.33
2019-03-23T08:24:54.611Z,47.37
2019-03-23T08:27:41.544Z,47.77
2019-03-23T08:30:25.273Z,49.57
2019-03-23T08:33:10.258Z,48.30
2019-03-23T08:35:56.974Z,49.07
2019-03-23T08:38:41.380Z,50.10
2019-03-23T08:41:25.631Z,48.43
2019-03-23T08:44:12.520Z,49.83
2019-03-23T08:46:56.850Z,50.27
2019-03-23T08:49:43.217Z,50.13
2019-03-23T08:52:28.894Z,47.60
2019-03-23T08:55:12.881Z,49.47
2019-03-23T08:57:57.563Z,48.80
2019-03-23T09:00:43.467Z,49.50
2019-03-23T09:03:27.590Z,50.33
2019-03-23T09:06:11.918Z,48.97
2019-03-23T09:08:56.208Z,48.33
2019-03-23T09:11:41.920Z,48.47
2019-03-23T09:14:25.784Z,51.00
2019-03-23T09:17:10.429Z,49.83
2019-03-23T09:19:54.600Z,48.67
2019-03-23T09:22:39.539Z,48.13
2019-03-23T09:25:25.478Z,48.52
2019-03-23T09:28:10.023Z,46.43
2019-03-23T09:30:54.624Z,49.93
2019-03-23T09:33:40.816Z,48.47
2019-03-23T09:36:25.548Z,49.70
2019-03-23T09:39:10.049Z,42.30
2019-03-23T09:41:54.865Z,47.80
2019-03-23T09:44:39.168Z,49.77
2019-03-23T09:47:25.313Z,48.47
2019-03-23T09:50:09.571Z,49.70
2019-03-23T09:52:56.550Z,50.50
2019-03-23T09:55:29.536Z,50.37
2019-03-23T09:58:21.341Z,47.90
2019-03-23T10:01:06.476Z,50.33
2019-03-23T10:03:51.369Z,49.80
2019-03-23T10:06:38.046Z,50.55
2019-03-23T10:09:23.837Z,47.87
2019-03-23T10:12:08.111Z,47.63
2019-03-23T10:14:54.462Z,49.97
2019-03-23T10:17:39.239Z,50.60
2019-03-23T10:20:23.794Z,49.37
2019-03-23T10:23:10.034Z,50.77
2019-03-23T10:25:55.090Z,47.20
2019-03-23T10:28:39.236Z,48.52
2019-03-23T10:31:23.862Z,50.23
2019-03-23T10:34:08.219Z,50.27
2019-03-23T10:36:41.482Z,51.13
2019-03-23T10:39:29.692Z,52.47
2019-03-23T10:42:16.120Z,52.60
2019-03-23T10:45:01.839Z,50.43
2019-03-23T10:47:46.447Z,50.57
2019-03-23T10:50:31.921Z,49.98
2019-03-23T10:53:22.985Z,50.90
2019-03-23T10:56:02.545Z,49.53
2019-03-23T10:58:48.736Z,49.65
2019-03-23T11:01:33.208Z,52.47
2019-03-23T11:04:17.131Z,51.27
2019-03-23T11:07:01.166Z,49.00
2019-03-23T11:09:45.962Z,48.97
2019-03-23T11:12:30.290Z,49.40
2019-03-23T11:15:16.764Z,50.57
2019-03-23T11:18:00.801Z,50.15
2019-03-23T11:20:45.351Z,50.23
2019-03-23T11:23:29.829Z,50.03
2019-03-23T11:29:15.547Z,50.20
2019-03-23T11:32:00.317Z,51.13
2019-03-23T11:34:45.900Z,51.43
2019-03-23T11:37:30.197Z,51.70
2019-03-23T11:40:15.855Z,48.87
2019-03-23T11:45:46.566Z,50.10
2019-03-23T11:48:30.730Z,47.97
2019-03-23T11:51:17.543Z,49.25
2019-03-23T11:54:02.407Z,49.43
2019-03-23T11:56:47.586Z,49.60
2019-03-23T11:59:32.130Z,48.67
2019-03-23T12:02:18.484Z,49.97
2019-03-23T12:05:03.514Z,49.20
2019-03-23T12:07:48.624Z,48.90
2019-03-23T12:10:33.415Z,51.23
2019-03-23T12:13:17.973Z,47.93
2019-03-23T12:16:02.590Z,48.23
2019-03-23T12:18:47.231Z,47.40
2019-03-23T12:24:25.185Z,58.48
2019-03-23T12:27:09.491Z,47.57
2019-03-23T12:29:53.721Z,44.53
2019-03-23T12:35:37.345Z,41.57
2019-03-23T12:44:49.306Z,41.73
2019-03-23T12:54:01.035Z,29.03
2019-03-23T13:09:36.156Z,5.00
2019-03-23T13:12:26.518Z,5.12
2019-03-23T13:21:29.185Z,3.65
2019-03-23T13:24:19.427Z,3.70
2019-03-23T13:30:16.619Z,3.55
2019-03-23T13:33:01.460Z,3.97
2019-03-23T13:35:45.876Z,3.77
2019-03-23T13:44:47.270Z,4.27
2019-03-23T13:47:37.757Z,3.43
2019-03-23T13:50:28.655Z,3.17
2019-03-23T13:53:13.112Z,2.93
2019-03-23T13:55:59.413Z,3.00
2019-03-23T14:01:43.635Z,2.60
2019-03-23T14:04:50.431Z,2.83
2019-03-23T14:07:37.120Z,2.30
2019-03-23T14:13:37.761Z,2.30
2019-03-23T14:19:31.922Z,2.70
2019-03-23T14:25:32.802Z,2.33
2019-03-23T14:28:17.284Z,2.60
2019-03-23T14:31:07.739Z,2.50
2019-03-23T14:36:56.021Z,3.00
2019-03-23T14:55:50.208Z,2.67
2019-03-23T15:01:24.407Z,2.80
2019-03-23T15:04:09.300Z,3.80
2019-03-23T15:06:53.894Z,3.30
2019-03-23T15:12:43.548Z,3.87
2019-03-23T15:15:33.841Z,3.15
2019-03-23T15:18:17.829Z,3.87
2019-03-23T15:21:02.486Z,3.47
2019-03-23T15:23:46.484Z,3.40
2019-03-23T15:26:37.467Z,3.83
2019-03-23T15:29:21.901Z,3.43
2019-03-23T15:32:06.093Z,3.58
2019-03-23T15:34:52.032Z,4.57
2019-03-23T15:40:47.455Z,3.40
2019-03-23T15:43:32.115Z,4.37
2019-03-23T15:46:16.215Z,3.93
2019-03-23T15:52:02.455Z,4.63
2019-03-23T15:54:50.794Z,3.90
2019-03-23T15:57:35.736Z,5.00
2019-03-23T16:00:19.653Z,4.00
2019-03-23T16:18:46.771Z,3.77
2019-03-23T16:21:31.196Z,4.20
2019-03-23T16:24:15.351Z,3.83
2019-03-23T16:27:05.835Z,4.37
2019-03-23T16:29:49.962Z,4.57
2019-03-23T16:32:38.128Z,5.47
2019-03-23T16:41:49.701Z,4.12
2019-03-23T16:44:37.639Z,4.30
2019-03-23T16:47:27.528Z,4.33
2019-03-23T16:50:11.819Z,4.70
2019-03-23T16:52:44.841Z,5.15
2019-03-23T16:58:42.816Z,4.40
2019-03-23T17:01:26.913Z,4.13
2019-03-23T17:04:17.758Z,3.70
2019-03-23T17:07:05.999Z,3.33
2019-03-23T17:09:50.874Z,4.07
2019-03-23T17:12:40.975Z,4.77
2019-03-23T17:18:27.488Z,3.73
2019-03-23T17:21:14.775Z,5.00
2019-03-23T17:23:48.814Z,5.10
2019-03-23T17:29:35.466Z,3.97
2019-03-23T17:32:25.510Z,4.80
2019-03-23T17:35:09.381Z,4.73
2019-03-23T17:37:53.721Z,4.47
2019-03-23T17:40:41.849Z,4.83
2019-03-23T17:43:26.478Z,5.08
2019-03-23T17:46:10.645Z,4.83
2019-03-23T17:48:54.405Z,4.23
2019-03-23T17:51:38.991Z,5.23
2019-03-23T17:54:22.817Z,5.20
2019-03-23T17:57:07.170Z,5.97
2019-03-23T17:59:51.896Z,6.10
2019-03-23T18:02:36.753Z,5.00
2019-03-23T18:05:22.840Z,4.37
2019-03-23T18:08:07.093Z,4.50
2019-03-23T18:10:52.477Z,4.62
2019-03-23T18:16:46.439Z,4.77
2019-03-23T18:19:31.193Z,5.00
2019-03-23T18:25:23.429Z,4.73
2019-03-23T18:28:13.588Z,4.37
2019-03-23T18:31:00.635Z,4.55
2019-03-23T18:36:55.965Z,4.00
2019-03-23T18:39:40.139Z,4.20
2019-03-23T18:42:25.307Z,5.37
2019-03-23T18:45:16.032Z,4.10
2019-03-23T18:48:17.997Z,3.45
2019-03-23T18:51:02.106Z,4.37
2019-03-23T18:53:46.022Z,4.83
2019-03-23T18:56:29.866Z,4.47
2019-03-23T19:02:25.305Z,3.50
2019-03-23T19:08:20.152Z,4.77
2019-03-23T19:11:09.135Z,3.87
2019-03-23T19:20:06.506Z,4.97
2019-03-23T19:26:01.884Z,4.05
2019-03-23T19:31:37.874Z,4.50
2019-03-23T19:37:32.804Z,5.07
2019-03-23T19:40:20.310Z,4.43
2019-03-23T19:43:28.605Z,4.23
2019-03-23T19:46:13.636Z,4.83
2019-03-23T19:48:47.014Z,4.80
2019-03-23T19:57:56.000Z,4.00
2019-03-23T20:03:57.010Z,4.40
2019-03-23T20:06:41.849Z,4.27
2019-03-23T20:12:32.319Z,4.87
2019-03-23T20:15:17.003Z,5.17
2019-03-23T20:18:01.759Z,4.73
2019-03-23T20:20:45.736Z,4.63
2019-03-23T20:23:30.452Z,4.27
2019-03-23T20:26:14.564Z,5.63
2019-03-23T20:28:58.884Z,4.90
2019-03-23T20:31:42.832Z,5.13
2019-03-23T20:34:32.539Z,4.23
2019-03-23T20:37:26.740Z,4.13
2019-03-23T20:43:13.100Z,4.55
2019-03-23T20:45:58.995Z,4.07
2019-03-23T20:48:43.299Z,4.40
2019-03-23T20:51:28.039Z,4.37
2019-03-23T20:54:13.749Z,4.37
2019-03-23T20:56:58.594Z,4.03
2019-03-23T20:59:32.423Z,5.10
2019-03-23T21:02:16.953Z,5.00
2019-03-23T21:05:01.031Z,4.17
2019-03-23T21:07:35.728Z,3.98
2019-03-23T21:10:09.258Z,5.03
2019-03-23T21:15:55.803Z,4.97
2019-03-23T21:18:39.644Z,4.47
2019-03-23T21:21:24.083Z,4.77
2019-03-23T21:24:08.150Z,4.90
2019-03-23T21:26:52.729Z,4.97
2019-03-23T21:29:37.459Z,4.23
2019-03-23T21:32:22.075Z,4.90
2019-03-23T21:35:06.742Z,4.93
2019-03-23T21:37:51.631Z,5.33
2019-03-23T21:40:35.828Z,5.90
2019-03-23T21:43:19.786Z,5.30
2019-03-23T21:46:04.465Z,5.22
2019-03-23T21:48:49.347Z,6.12
2019-03-23T21:51:33.203Z,5.20
2019-03-23T21:54:17.536Z,6.70
2019-03-23T21:57:02.425Z,6.33
2019-03-23T21:59:47.028Z,6.07
2019-03-23T22:02:31.383Z,5.80
2019-03-23T22:08:24.699Z,5.70
2019-03-23T22:11:15.092Z,5.30
2019-03-23T22:17:08.162Z,5.47
2019-03-23T22:20:04.451Z,6.37
2019-03-23T22:22:49.124Z,4.50
2019-03-23T22:28:44.589Z,5.57
2019-03-23T22:31:30.890Z,5.60
2019-03-23T22:34:14.921Z,6.47
2019-03-23T22:37:05.084Z,7.10
2019-03-23T22:39:48.981Z,5.40
2019-03-23T22:42:33.639Z,5.53
2019-03-23T22:45:17.962Z,5.27
2019-03-23T22:48:01.875Z,5.50
2019-03-23T22:50:46.823Z,5.03
2019-03-23T22:53:36.844Z,5.93
2019-03-23T22:56:20.649Z,6.13
2019-03-23T22:59:05.310Z,5.50
2019-03-23T23:04:51.287Z,5.50
2019-03-23T23:07:35.825Z,6.15
2019-03-23T23:13:35.816Z,6.00
2019-03-23T23:16:28.004Z,5.43
2019-03-23T23:31:33.756Z,5.20
2019-03-23T23:37:19.260Z,4.90
2019-03-23T23:40:05.601Z,4.67
2019-03-23T23:42:49.856Z,4.63
2019-03-23T23:45:37.700Z,6.00
2019-03-23T23:51:28.415Z,5.83
2019-03-23T23:54:12.304Z,5.23
2019-03-23T23:56:56.285Z,4.60
